Latest Weather Observations for Mandurah

IDW60801

Issued at 10:34 pm WST Friday 21 July 2017 (issued every 30 minutes, with the page automatically refreshed every 10 minutes)

About weather observations | Map of weather stations | Latest weather observations for WA | Other Formats
Station Details ID: 009977 Name: MANDURAH Lat: -32.52 Lon: 115.71 Height: 3.0 m
Data from the previous 72 hours. | See also: Recent months at Mandurah
Date/Time
WST
Temp
°C
App
Temp
°C
Dew
Point
°C
Rel
Hum
%
Delta-T
°C
Wind Press
QNH
hPa
Press
MSL
hPa
Rain since
9am
mm
Dir  Spd
km/h
Gust
km/h
Spd
kts
Gust
kts
21/10:30pm 15.4 13.3 9.7 69 3.0 SW 11 19 6 10 1015.8 1015.8 10.4
21/10:00pm 15.5 11.5 9.2 66 3.2 WSW 20 32 11 17 1015.7 1015.7 10.4
21/09:30pm 15.8 12.1 10.1 69 3.0 SW 20 33 11 18 1015.6 1015.6 10.4
21/09:00pm 15.8 13.1 11.6 76 2.3 SW 17 26 9 14 1015.1 1015.1 10.4
21/08:30pm 15.6 13.4 13.3 86 1.3 SW 17 28 9 15 1014.7 1014.7 10.4
21/08:00pm 15.0 14.4 14.7 98 0.2 SW 11 22 6 12 1014.4 1014.4 10.4
21/07:30pm 15.4 13.9 15.2 99 0.1 WSW 17 28 9 15 1014.3 1014.3 9.4
21/07:00pm 15.4 12.1 14.9 97 0.3 W 26 46 14 25 1014.1 1014.1 8.2
21/06:32pm 15.5 11.8 14.9 96 0.3 W 28 46 15 25 1013.4 1013.4 6.6
21/06:30pm 15.4 11.9 14.6 95 0.5 W 26 43 14 23 1013.4 1013.4 6.6
21/06:00pm 15.5 9.4 14.2 92 0.7 WNW 39 48 21 26 1013.2 1013.2 5.2
21/05:30pm 15.7 9.5 12.6 82 1.7 WNW 37 54 20 29 1013.1 1013.1 2.0
21/05:00pm 17.6 10.7 11.6 68 3.3 NW 39 50 21 27 1012.5 1012.5 0.0
21/04:30pm 17.8 10.8 11.1 65 3.6 WNW 39 50 21 27 1012.5 1012.5 0.0
21/04:00pm 17.7 11.1 11.5 67 3.4 WNW 37 50 20 27 1012.4 1012.4 0.0
21/03:30pm 17.9 11.4 12.8 72 2.8 WNW 39 48 21 26 1012.2 1012.2 0.0
21/03:00pm 17.9 11.4 12.8 72 2.9 NW 39 48 21 26 1012.1 1012.1 0.0
21/02:30pm 17.9 10.8 12.1 69 3.2 WNW 41 52 22 28 1012.2 1012.2 0.0
21/02:00pm 17.9 10.3 11.7 67 3.4 NW 43 50 23 27 1012.2 1012.2 0.0
21/01:30pm 17.8 10.3 10.9 64 3.7 NW 41 54 22 29 1012.5 1012.5 0.0
21/01:00pm 18.1 11.2 10.2 60 4.2 NW 37 50 20 27 1012.7 1012.7 0.0
21/12:30pm 18.3 10.6 10.2 59 4.3 NW 41 52 22 28 1012.9 1012.9 0.0
21/12:00pm 18.1 10.9 10.7 62 4.0 NW 39 50 21 27 1013.4 1013.4 0.0
21/11:30am 18.2 10.5 10.3 60 4.2 WNW 41 54 22 29 1013.7 1013.7 0.0
21/11:00am 17.8 10.7 10.9 64 3.7 WNW 39 52 21 28 1013.7 1013.7 0.0
21/10:30am 17.9 10.7 10.5 62 4.0 NW 39 52 21 28 1013.7 1013.7 0.0
21/10:00am 17.6 10.0 10.5 63 3.8 NW 41 50 22 27 1013.5 1013.5 0.0
21/09:30am 17.5 11.3 11.3 67 3.4 NW 35 46 19 25 1013.4 1013.4 0.0
21/09:00am 17.4 11.1 11.0 66 3.4 WNW 35 46 19 25 1013.1 1013.1 1.6
21/08:30am 17.3 10.6 9.7 61 4.0 WNW 35 43 19 23 1012.9 1012.9 1.6
21/08:00am 17.0 10.9 10.4 65 3.5 WNW 33 39 18 21 1012.7 1012.7 1.6
21/07:30am 17.0 11.5 10.4 65 3.5 WNW 30 37 16 20 1012.6 1012.6 1.6
21/07:00am 16.8 11.2 8.8 59 4.1 W 28 39 15 21 1012.6 1012.6 1.6
21/06:30am 16.7 11.2 10.5 67 3.3 W 30 39 16 21 1012.4 1012.4 1.6
21/06:00am 16.8 11.1 11.1 69 3.1 WNW 32 41 17 22 1012.0 1012.0 1.6
21/05:30am 17.1 11.3 9.3 60 4.1 WNW 30 37 16 20 1011.7 1011.7 1.6
21/05:00am 17.0 11.7 11.1 68 3.2 WNW 30 37 16 20 1011.7 1011.7 1.6
21/04:30am 17.0 11.7 9.9 63 3.7 WNW 28 37 15 20 1011.8 1011.8 1.6
21/04:00am 16.9 11.7 8.8 59 4.2 W 26 35 14 19 1011.8 1011.8 1.6
21/03:30am 16.6 11.7 8.6 59 4.1 W 24 33 13 18 1011.8 1011.8 1.6
21/03:00am 16.6 11.6 9.5 63 3.7 W 26 39 14 21 1011.9 1011.9 1.6
21/02:30am 16.8 12.0 10.2 65 3.5 W 26 33 14 18 1012.1 1012.1 1.6
21/02:00am 16.3 12.7 8.3 59 4.1 W 17 22 9 12 1012.2 1012.2 1.6
21/01:30am 16.0 10.5 9.0 63 3.6 W 28 41 15 22 1012.4 1012.4 1.6
21/01:00am 16.0 13.0 11.8 76 2.3 WNW 19 26 10 14 1012.4 1012.4 1.6
21/12:30am 16.2 12.5 11.4 73 2.6 W 22 33 12 18 1012.6 1012.6 1.6
21/12:00am 16.1 10.3 10.8 71 2.8 W 32 41 17 22 1012.7 1012.7 1.6
 
Date/Time
WST
Temp
°C
App
Temp
°C
Dew
Point
°C
Rel
Hum
%
Delta-T
°C
Wind Press
QNH
hPa
Press
MSL
hPa
Rain since
9am
mm
Dir  Spd
km/h
Gust
km/h
Spd
kts
Gust
kts
20/11:30pm 16.4 12.4 10.3 67 3.2 W 22 32 12 17 1012.6 1012.6 1.4
20/11:00pm 15.9 11.4 10.2 69 3.0 W 24 33 13 18 1012.8 1012.8 1.4
20/10:30pm 15.5 11.8 10.1 70 2.8 WSW 20 39 11 21 1012.8 1012.8 1.4
20/10:00pm 16.1 12.6 10.2 68 3.1 WSW 19 30 10 16 1012.7 1012.7 1.4
20/09:30pm 15.7 12.0 9.4 66 3.3 WSW 19 28 10 15 1012.5 1012.5 1.4
20/09:00pm 15.9 12.5 10.4 70 2.9 SW 19 28 10 15 1012.4 1012.4 1.4
20/08:30pm 15.9 12.5 11.1 73 2.6 WSW 20 32 11 17 1012.4 1012.4 1.4
20/08:00pm 15.8 12.6 11.2 74 2.5 WSW 19 28 10 15 1012.3 1012.3 1.4
20/07:30pm 15.6 12.3 11.6 77 2.2 WSW 20 35 11 19 1012.0 1012.0 1.4
20/07:00pm 15.5 11.8 11.5 77 2.2 WSW 22 39 12 21 1012.0 1012.0 1.4
20/06:30pm 15.3 12.2 12.1 81 1.7 WSW 20 43 11 23 1011.6 1011.6 1.4
20/06:00pm 15.6 11.7 12.0 79 2.0 WSW 24 39 13 21 1011.4 1011.4 1.4
20/05:30pm 15.6 10.9 12.0 79 2.0 WSW 28 44 15 24 1011.1 1011.1 1.4
20/05:00pm 15.3 10.5 11.7 79 1.9 W 28 41 15 22 1010.8 1010.8 1.4
20/04:30pm 16.1 12.8 11.5 74 2.5 WSW 20 35 11 19 1010.5 1010.5 1.4
20/04:00pm 16.7 12.2 11.4 71 2.9 W 26 37 14 20 1010.3 1010.3 1.4
20/03:30pm 16.5 12.2 11.9 74 2.5 W 26 43 14 23 1009.9 1009.9 1.4
20/03:00pm 16.3 11.3 12.1 76 2.3 WSW 30 46 16 25 1010.1 1010.1 1.4
20/02:30pm 15.9 11.2 11.9 77 2.2 W 28 44 15 24 1009.8 1009.8 1.4
20/02:00pm 16.1 11.5 12.3 78 2.1 W 28 44 15 24 1009.6 1009.6 1.4
20/01:30pm 17.4 12.1 11.4 68 3.3 W 30 43 16 23 1009.6 1009.6 1.2
20/01:00pm 17.4 12.3 11.9 70 3.0 W 30 41 16 22 1009.7 1009.7 1.2
20/12:48pm 17.1 11.5 12.0 72 2.8 W 33 52 18 28 1009.8 1009.8 1.2
20/12:30pm 17.3 11.3 10.9 66 3.4 W 33 44 18 24 1009.9 1009.9 1.2
20/12:17pm 16.5 11.8 11.9 74 2.5 W 28 48 15 26 1010.0 1010.0 1.2
20/12:00pm 17.1 11.6 11.8 71 2.9 W 32 43 17 23 1010.2 1010.2 1.2
20/11:30am 15.2 10.6 12.3 83 1.6 WNW 28 37 15 20 1010.5 1010.5 1.2
20/11:17am 15.3 10.6 12.1 81 1.7 WNW 28 46 15 25 1010.8 1010.8 1.0
20/11:00am 15.6 10.1 12.0 79 2.0 WNW 32 39 17 21 1010.7 1010.7 0.6
20/10:35am 16.9 11.8 10.7 67 3.3 W 28 48 15 26 1010.4 1010.4 0.4
20/10:30am 16.9 12.3 11.0 68 3.2 W 26 37 14 20 1010.4 1010.4 0.4
20/10:00am 15.6 11.3 12.0 79 2.0 WNW 26 35 14 19 1010.4 1010.4 0.4
20/09:30am 14.6 10.3 10.8 78 2.0 W 24 39 13 21 1010.3 1010.3 0.2
20/09:00am 15.5 9.8 11.7 78 2.1 WNW 33 43 18 23 1009.9 1009.9 6.8
20/08:30am 13.8 8.5 9.8 77 2.1 WSW 28 43 15 23 1010.0 1010.0 6.8
20/08:00am 15.7 10.4 10.0 69 3.0 W 28 41 15 22 1009.5 1009.5 6.6
20/07:30am 14.7 11.4 11.7 82 1.6 W 20 32 11 17 1009.3 1009.3 6.6
20/07:00am 14.0 11.9 11.0 82 1.6 WSW 13 20 7 11 1009.1 1009.1 6.4
20/06:30am 14.4 10.3 10.0 75 2.3 WSW 22 35 12 19 1009.1 1009.1 5.8
20/06:00am 14.9 10.0 10.1 73 2.5 W 26 43 14 23 1008.6 1008.6 5.8
20/05:30am 15.2 9.1 9.6 69 2.9 W 32 52 17 28 1008.6 1008.6 5.8
20/05:28am 15.5 9.4 9.8 69 3.0 W 32 52 17 28 1008.6 1008.6 5.8
20/05:00am 15.5 9.2 9.6 68 3.1 W 33 46 18 25 1008.0 1008.0 5.8
20/04:35am 15.8 9.4 9.5 66 3.3 W 33 52 18 28 1008.1 1008.1 5.6
20/04:30am 16.0 9.7 9.7 66 3.3 W 33 52 18 28 1008.0 1008.0 5.6
20/04:14am 15.7 9.5 10.2 70 2.9 W 33 54 18 29 1007.7 1007.7 5.6
20/04:00am 15.7 8.9 10.7 72 2.7 W 37 48 20 26 1007.7 1007.7 5.6
20/03:30am 14.6 9.6 12.3 86 1.3 WNW 30 41 16 22 1007.9 1007.9 5.6
20/03:00am 15.8 8.6 12.0 78 2.1 WNW 41 69 22 37 1007.8 1007.8 5.0
20/02:34am 14.3 7.8 11.6 84 1.4 W 37 57 20 31 1007.8 1007.8 4.8
20/02:30am 14.3 6.5 11.3 82 1.6 W 43 57 23 31 1007.9 1007.9 4.8
20/02:00am 15.3 6.7 10.3 72 2.6 W 46 65 25 35 1008.1 1008.1 4.4
20/01:30am 16.4 6.4 10.7 69 3.0 WNW 54 72 29 39 1007.9 1007.9 4.4
20/01:20am 15.6 9.4 12.7 83 1.6 WNW 37 61 20 33 1008.1 1008.1 4.4
20/01:00am 15.0 8.8 12.5 85 1.4 WNW 37 50 20 27 1008.4 1008.4 4.4
20/12:30am 14.4 7.1 10.2 76 2.2 W 39 65 21 35 1008.9 1008.9 3.6
20/12:24am 15.1 6.4 10.1 72 2.6 WNW 46 65 25 35 1009.0 1009.0 3.6
20/12:22am 16.0 7.4 10.3 69 3.0 WNW 46 65 25 35 1009.1 1009.1 3.6
20/12:00am 16.4 9.1 11.6 73 2.6 NW 41 52 22 28 1008.8 1008.8 3.6
 
Date/Time
WST
Temp
°C
App
Temp
°C
Dew
Point
°C
Rel
Hum
%
Delta-T
°C
Wind Press
QNH
hPa
Press
MSL
hPa
Rain since
9am
mm
Dir  Spd
km/h
Gust
km/h
Spd
kts
Gust
kts
19/11:30pm 16.6 8.2 11.1 70 3.0 NW 46 57 25 31 1009.3 1009.3 3.6
19/11:00pm 16.6 8.5 10.9 69 3.1 NW 44 57 24 31 1009.6 1009.6 3.6
19/10:30pm 16.6 8.4 10.5 67 3.2 NW 44 54 24 29 1009.7 1009.7 3.6
19/10:00pm 16.8 8.1 10.0 64 3.6 NW 46 57 25 31 1010.1 1010.1 3.6
19/09:30pm 16.7 8.7 10.5 67 3.3 NW 43 57 23 31 1010.2 1010.2 3.6
19/09:00pm 16.2 8.5 12.0 76 2.3 NW 44 61 24 33 1010.8 1010.8 3.6
19/08:34pm 16.0 7.2 11.0 72 2.7 WNW 48 67 26 36 1010.8 1010.8 3.6
19/08:30pm 15.1 6.1 11.5 79 1.9 WNW 50 67 27 36 1010.8 1010.8 3.6
19/08:00pm 15.4 7.6 11.8 79 1.9 WNW 44 63 24 34 1011.5 1011.5 2.8
19/07:55pm 15.1 6.5 11.5 79 1.9 WNW 48 65 26 35 1011.4 1011.4 2.8
19/07:48pm 15.5 6.9 10.3 71 2.7 WNW 46 65 25 35 1010.9 1010.9 2.8
19/07:39pm 16.5 8.6 11.4 72 2.8 NW 44 63 24 34 1010.9 1010.9 2.8
19/07:30pm 15.7 7.1 10.2 70 2.9 NW 46 63 25 34 1010.6 1010.6 2.8
19/07:07pm 15.6 6.2 10.2 70 2.8 NW 50 83 27 45 1011.2 1011.2 1.4
19/07:00pm 17.2 8.4 9.4 60 4.1 NW 46 61 25 33 1010.8 1010.8 1.2
19/06:30pm 17.3 9.0 10.0 62 3.9 NW 44 57 24 31 1010.8 1010.8 1.2
19/06:00pm 17.1 8.0 9.8 62 3.8 NW 48 59 26 32 1010.9 1010.9 1.2
19/05:30pm 17.1 9.6 10.9 67 3.3 NW 41 50 22 27 1010.7 1010.7 1.2
19/05:00pm 17.3 8.3 8.7 57 4.4 NW 46 57 25 31 1010.6 1010.6 1.2
19/04:30pm 16.5 8.8 11.4 72 2.8 NW 43 59 23 32 1010.8 1010.8 1.2
19/04:25pm 16.6 9.3 11.5 72 2.8 NW 41 59 22 32 1010.9 1010.9 1.2
19/04:00pm 17.0 9.4 11.9 72 2.8 NW 43 54 23 29 1011.1 1011.1 1.0
19/03:30pm 16.9 11.3 12.2 74 2.6 NNW 33 43 18 23 1011.1 1011.1 1.0
19/03:00pm 16.6 10.0 11.5 72 2.8 NW 37 48 20 26 1011.2 1011.2 1.0
19/02:30pm 15.6 7.8 12.9 84 1.5 NW 46 61 25 33 1011.7 1011.7 1.0
19/02:09pm 16.1 10.4 11.9 76 2.3 NNW 33 52 18 28 1011.7 1011.7 1.0
19/02:00pm 16.2 8.2 10.5 69 3.0 NNW 43 54 23 29 1011.7 1011.7 1.0
19/01:30pm 16.7 9.0 10.3 66 3.4 NW 41 54 22 29 1012.1 1012.1 1.0
19/01:00pm 17.0 9.9 10.8 67 3.3 NW 39 48 21 26 1012.5 1012.5 1.0
19/12:30pm 15.0 6.6 11.2 78 2.0 NW 46 69 25 37 1013.2 1013.2 1.0
19/12:21pm 16.8 9.3 10.9 68 3.2 NW 41 59 22 32 1013.0 1013.0 1.0
19/12:00pm 16.4 9.7 11.1 71 2.8 NW 37 46 20 25 1013.3 1013.3 1.0
19/11:30am 16.8 9.6 10.6 67 3.3 NW 39 50 21 27 1013.7 1013.7 0.2
19/11:00am 17.6 9.9 10.2 62 3.9 NW 41 54 22 29 1013.9 1013.9 0.2
19/10:30am 17.0 9.7 10.1 64 3.6 NW 39 48 21 26 1014.2 1014.2 0.0
19/10:02am 15.3 7.6 11.5 78 2.0 NW 43 61 23 33 1014.8 1014.8 0.0
19/10:00am 15.1 7.0 10.9 76 2.2 NW 44 61 24 33 1014.9 1014.9 0.0
19/09:54am 16.6 9.8 10.5 67 3.2 NW 37 61 20 33 1014.5 1014.5 0.0
19/09:30am 15.7 8.6 9.6 67 3.2 NW 37 52 20 28 1014.6 1014.6 0.0
19/09:00am 16.8 10.1 9.5 62 3.8 WNW 35 50 19 27 1014.6 1014.6 2.4
19/08:30am 16.8 10.1 8.2 57 4.4 NW 33 43 18 23 1014.4 1014.4 2.4
19/08:00am 16.6 9.8 9.1 61 3.9 NW 35 46 19 25 1014.3 1014.3 2.4
19/07:30am 16.4 9.7 8.1 58 4.2 NW 33 46 18 25 1014.3 1014.3 2.4
19/07:00am 16.6 9.6 8.6 59 4.1 NW 35 44 19 24 1014.2 1014.2 2.4
19/06:30am 16.5 9.6 9.0 61 3.9 NW 35 46 19 25 1013.9 1013.9 2.4
19/06:00am 16.5 9.5 8.5 59 4.1 NW 35 43 19 23 1014.0 1014.0 2.4
19/05:30am 16.4 8.5 9.3 63 3.7 NW 41 48 22 26 1014.0 1014.0 2.4
19/05:00am 16.1 9.9 10.2 68 3.1 WNW 33 46 18 25 1014.0 1014.0 2.4
19/04:30am 16.2 10.0 10.1 67 3.2 WNW 33 48 18 26 1014.1 1014.1 2.4
19/04:05am 15.9 10.5 10.9 72 2.7 WNW 30 50 16 27 1014.1 1014.1 2.4
19/04:00am 15.9 10.6 11.3 74 2.5 WNW 30 41 16 22 1014.2 1014.2 2.4
19/03:30am 15.6 10.0 12.0 79 2.0 WNW 33 46 18 25 1014.2 1014.2 2.4
19/03:00am 15.7 9.5 11.5 76 2.3 NW 35 41 19 22 1014.0 1014.0 2.4
19/02:30am 16.0 9.9 11.6 75 2.4 WNW 35 44 19 24 1014.2 1014.2 2.4
19/02:00am 15.8 11.1 13.3 85 1.4 WNW 30 39 16 21 1014.3 1014.3 2.4
19/01:30am 16.2 12.1 12.7 80 1.9 WNW 26 35 14 19 1014.5 1014.5 2.4
19/01:00am 16.7 11.5 11.6 72 2.8 WNW 30 44 16 24 1014.3 1014.3 2.4
19/12:30am 17.0 12.7 12.1 73 2.7 WNW 26 33 14 18 1014.6 1014.6 2.4
19/12:00am 16.8 13.0 12.5 76 2.4 WNW 24 32 13 17 1014.8 1014.8 2.4
 
Date/Time
WST
Temp
°C
App
Temp
°C
Dew
Point
°C
Rel
Hum
%
Delta-T
°C
Wind Press
QNH
hPa
Press
MSL
hPa
Rain since
9am
mm
Dir  Spd
km/h
Gust
km/h
Spd
kts
Gust
kts
18/11:30pm 16.6 12.8 13.7 83 1.6 WNW 26 32 14 17 1015.0 1015.0 2.4
18/11:00pm 15.8 12.4 14.7 93 0.6 WNW 26 35 14 19 1015.3 1015.3 2.4

Other Formats:

Comma delimited format used in spreadsheet applications
http://www.bom.gov.au/fwo/IDW60801/IDW60801.94605.axf

JavaScript Object Notation format (JSON) in row-major order
http://www.bom.gov.au/fwo/IDW60801/IDW60801.94605.json